Lindenwood, Illinois
Current Conditions -  °F | °C
As of 5:55 PM on Monday 20 Oct 2014 (Local Time) from KRPJ Reporting Station
Broken Clouds Broken Clouds  
Wind Chill: 59°   Ceiling: 5500
Heat Index: 59°   Visibility: 10mi
Dew Point: 43°   Wind: 6mph
Humidity: 56%   Direction: 360°N
Pressure: 29.94"   Gusts: NA
Location:  42.05°N, 89.03°W
Report Text: KRPJ 202255Z AUTO 36005KT 10SM BKN055 15/06 A2994 RMK AO2 T01480060
Loading
Personal Weather Stations






























Interactive Weather Map
Tropical Storm Tracking
New forecast layout! Learn more

10-Day Weather Forecast

Advertisements
Track Severe Weather on mobile